Time;durP1;ratioP1;P1;durP2;ratioP2;P2;SDS_P1;SDS_P2;PMS_P1;PMS_P2;Temp;Humidity;BMP_temperature;BMP_pressure;BME280_temperature;BME280_humidity;BME280_pressure;Samples;Min_cycle;Max_cycle;Signal;HPM_P1;HPM_P2
2021/12/27 00:00:22;;;;;;;19.33;9.10;;;4.60;99.90;;;;;;4989845;28;20207;-67
2021/12/27 00:02:57;;;;;;;23.33;8.63;;;4.60;99.90;;;;;;4986041;28;20568;-68
2021/12/27 00:05:24;;;;;;;15.87;8.50;;;4.60;99.90;;;;;;4989110;28;20210;-67
2021/12/27 00:07:51;;;;;;;18.03;8.30;;;4.60;99.90;;;;;;4984244;28;20730;-68
2021/12/27 00:10:19;;;;;;;15.57;8.10;;;4.60;99.90;;;;;;4971364;28;20256;-67
2021/12/27 00:12:46;;;;;;;18.03;9.23;;;4.70;99.90;;;;;;4979874;28;20208;-67
2021/12/27 00:15:16;;;;;;;13.20;7.50;;;4.70;99.90;;;;;;4979798;28;21674;-70
2021/12/27 00:17:43;;;;;;;16.40;9.17;;;4.60;99.90;;;;;;4987716;28;20205;-68
2021/12/27 00:20:14;;;;;;;18.43;8.80;;;4.80;99.90;;;;;;4986463;28;20280;-67
2021/12/27 00:22:43;;;;;;;14.30;7.80;;;4.60;99.90;;;;;;4985566;28;20375;-67
2021/12/27 00:25:09;;;;;;;17.47;8.63;;;4.50;99.90;;;;;;4989576;28;20215;-68
2021/12/27 00:27:36;;;;;;;16.47;8.63;;;4.60;99.90;;;;;;4986218;28;20218;-67
2021/12/27 00:30:05;;;;;;;16.63;8.80;;;4.50;99.90;;;;;;4983731;28;20581;-70
2021/12/27 00:32:33;;;;;;;18.13;8.97;;;4.50;99.90;;;;;;4982504;28;20203;-69
2021/12/27 00:34:59;;;;;;;14.47;8.33;;;4.50;99.90;;;;;;4986724;28;20230;-69
2021/12/27 00:37:26;;;;;;;16.80;8.60;;;4.60;99.90;;;;;;4987387;28;20191;-69
2021/12/27 00:39:52;;;;;;;14.93;7.93;;;4.60;99.90;;;;;;4984241;28;20201;-68
2021/12/27 00:42:19;;;;;;;16.67;8.77;;;4.60;99.90;;;;;;4981661;28;20404;-68
2021/12/27 00:44:46;;;;;;;14.93;7.97;;;4.60;99.90;;;;;;4988022;28;20924;-69
2021/12/27 00:47:12;;;;;;;15.07;8.53;;;4.70;99.90;;;;;;4987973;28;20676;-66
2021/12/27 00:49:39;;;;;;;16.03;7.80;;;4.50;99.90;;;;;;4984076;28;20289;-68
2021/12/27 00:52:06;;;;;;;17.60;9.10;;;4.40;99.90;;;;;;4977059;28;20208;-71
2021/12/27 00:54:32;;;;;;;16.80;8.60;;;4.50;99.90;;;;;;4979406;28;20227;-68
2021/12/27 00:56:59;;;;;;;15.13;8.47;;;4.60;99.90;;;;;;4984815;28;20209;-68
2021/12/27 00:59:26;;;;;;;15.30;8.47;;;4.60;99.90;;;;;;4982884;28;20670;-72
2021/12/27 01:01:53;;;;;;;16.20;7.97;;;4.60;99.90;;;;;;4987891;28;20247;-70
2021/12/27 01:04:20;;;;;;;12.37;7.30;;;4.70;99.90;;;;;;4983267;28;20224;-68
2021/12/27 01:06:47;;;;;;;15.47;8.10;;;4.80;99.90;;;;;;4981064;28;20227;-70
2021/12/27 01:09:23;;;;;;;16.73;9.13;;;4.80;99.90;;;;;;4986140;28;20196;-68
2021/12/27 01:12:11;;;;;;;16.20;8.27;;;4.70;99.90;;;;;;4989991;28;20200;-69
2021/12/27 01:14:41;;;;;;;16.93;9.30;;;4.70;99.90;;;;;;4987556;28;20228;-68
2021/12/27 01:17:09;;;;;;;14.97;7.57;;;4.90;99.90;;;;;;4983638;28;20197;-68
2021/12/27 01:19:36;;;;;;;15.50;8.13;;;4.90;99.90;;;;;;4986563;28;20202;-71
2021/12/27 01:22:03;;;;;;;16.43;9.17;;;4.90;99.90;;;;;;4976096;28;20269;-71
2021/12/27 01:24:30;;;;;;;13.57;8.30;;;4.90;99.90;;;;;;4984390;28;20583;-66
2021/12/27 01:27:00;;;;;;;15.33;7.90;;;4.90;99.90;;;;;;4986030;28;20680;-68
2021/12/27 01:29:26;;;;;;;15.03;8.57;;;4.90;99.90;;;;;;4983177;28;20197;-68
2021/12/27 01:31:53;;;;;;;14.07;8.23;;;5.00;99.90;;;;;;4989944;28;20197;-70
2021/12/27 01:34:22;;;;;;;17.37;8.23;;;5.10;99.90;;;;;;4988550;28;20229;-72
2021/12/27 01:36:49;;;;;;;17.03;8.30;;;5.10;99.90;;;;;;4981549;28;20525;-71
2021/12/27 01:39:16;;;;;;;15.50;8.63;;;5.00;99.90;;;;;;4988426;28;20194;-69
2021/12/27 01:41:43;;;;;;;15.10;8.10;;;4.80;99.90;;;;;;4990761;28;20197;-68
2021/12/27 01:44:11;;;;;;;13.90;7.43;;;4.80;99.90;;;;;;4984479;28;20212;-71
2021/12/27 01:46:39;;;;;;;14.80;7.90;;;4.80;99.90;;;;;;4989219;28;20746;-68
2021/12/27 01:49:07;;;;;;;15.50;8.20;;;4.80;99.90;;;;;;4988879;28;20193;-68
2021/12/27 01:51:38;;;;;;;15.70;9.07;;;4.80;99.90;;;;;;4990609;28;20251;-70
2021/12/27 01:54:05;;;;;;;16.07;8.07;;;4.90;99.90;;;;;;4984023;28;20277;-69
2021/12/27 01:56:32;;;;;;;15.07;7.87;;;5.00;99.90;;;;;;4990749;28;20258;-71
2021/12/27 01:58:59;;;;;;;15.07;7.60;;;5.10;99.90;;;;;;4989393;28;20669;-70
2021/12/27 02:01:26;;;;;;;14.87;7.67;;;5.10;99.90;;;;;;4987756;28;20205;-65
2021/12/27 02:03:54;;;;;;;15.57;8.60;;;5.10;99.90;;;;;;4989987;28;20224;-70
2021/12/27 02:06:22;;;;;;;14.47;8.23;;;5.20;99.90;;;;;;4982270;28;20221;-71
2021/12/27 02:08:49;;;;;;;15.57;8.33;;;5.20;99.90;;;;;;4990578;28;20208;-69
2021/12/27 02:11:17;;;;;;;16.50;9.10;;;5.40;99.90;;;;;;4981018;28;20208;-71
2021/12/27 02:13:45;;;;;;;15.57;8.63;;;5.40;99.90;;;;;;4982397;28;20818;-69
2021/12/27 02:16:19;;;;;;;13.27;7.50;;;5.50;99.90;;;;;;4992569;28;20225;-70
2021/12/27 02:18:48;;;;;;;14.70;7.07;;;5.30;99.90;;;;;;4987822;28;20556;-71
2021/12/27 02:21:15;;;;;;;14.67;7.57;;;5.20;99.90;;;;;;4984860;28;20290;-71
2021/12/27 02:23:42;;;;;;;16.27;8.07;;;5.20;99.90;;;;;;4989800;28;20222;-69
2021/12/27 02:26:10;;;;;;;16.30;8.07;;;5.10;99.90;;;;;;4986788;28;20232;-69
2021/12/27 02:28:37;;;;;;;15.60;7.77;;;5.10;99.90;;;;;;4987667;28;20205;-72
2021/12/27 02:31:04;;;;;;;14.07;8.03;;;5.00;99.90;;;;;;4981623;28;20201;-69
2021/12/27 02:33:31;;;;;;;12.70;7.33;;;5.00;99.90;;;;;;4976701;28;20664;-71
2021/12/27 02:35:59;;;;;;;14.63;7.83;;;5.00;99.90;;;;;;4986925;28;20712;-69
2021/12/27 02:38:31;;;;;;;13.63;7.27;;;5.00;99.90;;;;;;4988098;28;20649;-70
2021/12/27 02:40:59;;;;;;;15.10;7.20;;;5.00;99.90;;;;;;4987812;28;20205;-72
2021/12/27 02:43:29;;;;;;;15.27;8.17;;;5.00;99.90;;;;;;4990605;28;20220;-70
2021/12/27 02:46:02;;;;;;;17.83;8.00;;;5.10;99.90;;;;;;4985818;28;20197;-68
2021/12/27 02:48:32;;;;;;;12.97;7.43;;;5.10;99.90;;;;;;4984437;28;20197;-69
2021/12/27 02:50:59;;;;;;;14.17;7.90;;;5.10;99.90;;;;;;4989076;28;20204;-69
2021/12/27 02:53:27;;;;;;;17.17;8.17;;;5.10;99.90;;;;;;4988832;28;20224;-66
2021/12/27 02:55:56;;;;;;;11.80;7.23;;;5.20;99.90;;;;;;4990723;28;20699;-70
2021/12/27 02:58:23;;;;;;;14.00;7.13;;;5.10;99.90;;;;;;4983522;28;20210;-69
2021/12/27 03:00:51;;;;;;;15.23;7.23;;;5.10;99.90;;;;;;4988108;28;20201;-69
2021/12/27 03:03:19;;;;;;;14.53;7.80;;;5.10;99.90;;;;;;4980440;28;20294;-68
2021/12/27 03:05:47;;;;;;;14.40;7.27;;;5.00;99.90;;;;;;4983783;28;20577;-69
2021/12/27 03:08:15;;;;;;;11.83;6.77;;;4.90;99.90;;;;;;4989398;28;20209;-72
2021/12/27 03:10:44;;;;;;;12.77;6.87;;;5.00;99.90;;;;;;4972639;28;20216;-71
2021/12/27 03:13:22;;;;;;;13.90;8.10;;;5.00;99.90;;;;;;4986463;28;20260;-69
2021/12/27 03:15:53;;;;;;;14.63;7.93;;;5.20;99.90;;;;;;4990015;28;20217;-69
2021/12/27 03:18:21;;;;;;;17.07;7.57;;;5.20;99.90;;;;;;4980749;28;20650;-69
2021/12/27 03:20:49;;;;;;;15.03;7.63;;;5.10;99.90;;;;;;4987200;28;20200;-69
2021/12/27 03:23:16;;;;;;;12.67;7.03;;;5.00;99.90;;;;;;4985285;28;20193;-70
2021/12/27 03:25:43;;;;;;;14.83;7.93;;;5.10;99.90;;;;;;4975867;28;20212;-69
2021/12/27 03:28:10;;;;;;;16.90;7.90;;;5.20;99.90;;;;;;4986766;28;20205;-68
2021/12/27 03:30:37;;;;;;;14.77;8.33;;;5.20;99.90;;;;;;4989667;28;20690;-70
2021/12/27 03:33:05;;;;;;;16.73;8.40;;;5.30;99.90;;;;;;4977670;28;20204;-69
2021/12/27 03:35:36;;;;;;;18.97;8.50;;;5.30;99.90;;;;;;4976853;28;20217;-69
2021/12/27 03:38:10;;;;;;;15.97;8.37;;;5.30;99.90;;;;;;4989558;28;20205;-69
2021/12/27 03:40:38;;;;;;;18.27;8.57;;;5.20;99.90;;;;;;4986698;28;20197;-68
2021/12/27 03:43:05;;;;;;;16.63;7.80;;;5.10;99.90;;;;;;4989802;28;20205;-68
2021/12/27 03:45:37;;;;;;;19.67;8.93;;;5.00;99.90;;;;;;4987356;28;20205;-72
2021/12/27 03:48:06;;;;;;;18.40;8.27;;;5.10;99.90;;;;;;4982371;28;20201;-72
2021/12/27 03:50:34;;;;;;;20.03;10.07;;;5.20;99.90;;;;;;4989060;28;20212;-70
2021/12/27 03:53:01;;;;;;;17.60;8.97;;;5.20;99.90;;;;;;4989572;28;20673;-72
2021/12/27 03:55:28;;;;;;;19.47;8.77;;;5.20;99.90;;;;;;4989224;28;20216;-71
2021/12/27 03:58:04;;;;;;;23.90;9.07;;;5.20;99.90;;;;;;4989811;28;20193;-68
2021/12/27 04:01:17;;;;;;;19.27;9.33;;;5.20;99.90;;;;;;4985406;28;20204;-70
2021/12/27 04:03:18;;;;;;;16.87;8.83;;;5.30;99.90;;;;;;4981596;28;20267;-69
2021/12/27 04:05:46;;;;;;;17.13;8.37;;;5.50;99.90;;;;;;4988903;28;20204;-71
2021/12/27 04:08:13;;;;;;;16.33;8.10;;;5.30;99.90;;;;;;4986249;28;20679;-69
2021/12/27 04:10:41;;;;;;;25.37;8.50;;;5.10;99.90;;;;;;4986363;28;20720;-68
2021/12/27 04:13:10;;;;;;;18.93;8.20;;;5.10;99.90;;;;;;4989799;28;20731;-68
2021/12/27 04:15:38;;;;;;;17.47;8.13;;;5.20;99.90;;;;;;4985968;28;20282;-69
2021/12/27 04:18:05;;;;;;;20.20;8.17;;;5.10;99.90;;;;;;4989781;28;20202;-69
2021/12/27 04:20:32;;;;;;;19.63;7.90;;;5.10;99.90;;;;;;4977914;28;20665;-71
2021/12/27 04:22:59;;;;;;;18.43;7.97;;;5.00;99.90;;;;;;4984370;28;20190;-69
2021/12/27 04:25:25;;;;;;;19.40;8.43;;;5.00;99.90;;;;;;4985598;28;20246;-68
2021/12/27 04:27:52;;;;;;;18.03;7.80;;;5.10;99.90;;;;;;4989444;28;20215;-69
2021/12/27 04:30:20;;;;;;;21.43;8.57;;;5.00;99.90;;;;;;4988109;28;20196;-72
2021/12/27 04:32:49;;;;;;;18.97;8.03;;;4.90;99.90;;;;;;4981443;28;20201;-69
2021/12/27 04:35:17;;;;;;;20.70;8.40;;;5.00;99.90;;;;;;4983586;28;20235;-70
2021/12/27 04:37:45;;;;;;;23.37;9.20;;;5.00;99.90;;;;;;4990017;28;20306;-69
2021/12/27 04:40:13;;;;;;;19.20;9.17;;;4.90;99.90;;;;;;4989507;28;20209;-70
2021/12/27 04:42:45;;;;;;;24.10;8.87;;;5.00;99.90;;;;;;4988040;28;20204;-69
2021/12/27 04:45:14;;;;;;;20.77;8.63;;;5.00;99.90;;;;;;4986230;28;20727;-69
2021/12/27 04:47:42;;;;;;;18.77;8.77;;;5.00;99.90;;;;;;4986702;28;20582;-68
2021/12/27 04:50:10;;;;;;;21.90;8.87;;;5.00;99.90;;;;;;4982017;28;20218;-69
2021/12/27 04:52:37;;;;;;;26.33;8.90;;;4.90;99.90;;;;;;4971961;28;20203;-70
2021/12/27 04:55:04;;;;;;;21.60;9.57;;;4.90;99.90;;;;;;4983253;28;20599;-69
2021/12/27 04:57:31;;;;;;;19.93;9.30;;;5.00;99.90;;;;;;4987380;28;20683;-71
2021/12/27 04:59:58;;;;;;;21.63;8.50;;;5.10;99.90;;;;;;4989740;28;20282;-65
2021/12/27 05:02:24;;;;;;;18.53;8.57;;;5.00;99.90;;;;;;4992567;28;20197;-68
2021/12/27 05:04:51;;;;;;;25.40;9.00;;;5.00;99.90;;;;;;4983459;28;20214;-71
2021/12/27 05:07:18;;;;;;;20.83;8.70;;;4.90;99.90;;;;;;4991026;28;20203;-68
2021/12/27 05:09:44;;;;;;;20.80;8.33;;;4.80;99.90;;;;;;4982195;28;20205;-68
2021/12/27 05:12:11;;;;;;;16.93;7.10;;;4.90;99.90;;;;;;4991909;28;20189;-69
2021/12/27 05:14:38;;;;;;;17.63;8.20;;;4.80;99.90;;;;;;4991441;28;20221;-71
2021/12/27 05:17:04;;;;;;;20.00;8.03;;;4.80;99.90;;;;;;4991559;28;20353;-69
2021/12/27 05:19:31;;;;;;;20.30;8.27;;;4.90;99.90;;;;;;4986204;28;20201;-71
2021/12/27 05:21:58;;;;;;;19.20;7.60;;;4.90;99.90;;;;;;4991847;28;20215;-68
2021/12/27 05:24:27;;;;;;;15.47;6.87;;;4.80;99.90;;;;;;4991320;28;20223;-68
2021/12/27 05:26:54;;;;;;;19.83;7.97;;;4.80;99.90;;;;;;4987909;28;20271;-69
2021/12/27 05:29:22;;;;;;;18.37;7.60;;;4.80;99.90;;;;;;4986968;28;20848;-68
2021/12/27 05:31:49;;;;;;;18.43;7.13;;;4.80;99.90;;;;;;4989253;28;20255;-68
2021/12/27 05:34:16;;;;;;;17.87;7.37;;;4.90;99.90;;;;;;4986148;28;20247;-68
2021/12/27 05:36:45;;;;;;;16.50;7.27;;;4.80;99.90;;;;;;4986866;28;20228;-66
2021/12/27 05:39:16;;;;;;;17.40;7.73;;;4.80;99.90;;;;;;4986677;28;20195;-66
2021/12/27 05:41:43;;;;;;;18.40;7.27;;;4.80;99.90;;;;;;4992045;28;20199;-66
2021/12/27 05:44:10;;;;;;;15.80;7.03;;;4.80;99.90;;;;;;4987055;28;20219;-72
2021/12/27 05:46:36;;;;;;;17.87;7.30;;;4.80;99.90;;;;;;4993501;28;20200;-67
2021/12/27 05:49:03;;;;;;;15.17;7.57;;;4.80;99.90;;;;;;4986637;28;20200;-68
2021/12/27 05:51:30;;;;;;;15.70;7.20;;;4.80;99.90;;;;;;4992144;28;20205;-71
2021/12/27 05:53:57;;;;;;;16.30;6.87;;;4.90;99.90;;;;;;4987745;28;20243;-70
2021/12/27 05:56:23;;;;;;;16.77;7.33;;;5.00;99.90;;;;;;4974302;28;20279;-68
2021/12/27 05:58:50;;;;;;;15.37;6.77;;;5.00;99.90;;;;;;4996438;28;20193;-69
2021/12/27 06:01:17;;;;;;;15.73;6.70;;;5.00;99.90;;;;;;4990296;28;20195;-70
2021/12/27 06:03:43;;;;;;;19.07;7.27;;;4.90;99.90;;;;;;4988314;28;20217;-68
2021/12/27 06:06:10;;;;;;;14.40;6.60;;;5.00;99.90;;;;;;4989384;28;20860;-69
2021/12/27 06:08:37;;;;;;;18.43;7.40;;;5.00;99.90;;;;;;4988883;28;20198;-69
2021/12/27 06:11:04;;;;;;;15.70;7.23;;;5.00;99.90;;;;;;4978623;28;20201;-66
2021/12/27 06:13:35;;;;;;;15.43;6.90;;;5.10;99.90;;;;;;4987725;28;20236;-69
2021/12/27 06:16:01;;;;;;;15.67;7.00;;;5.10;99.90;;;;;;4988220;28;20218;-69
2021/12/27 06:18:28;;;;;;;13.30;6.67;;;5.10;99.90;;;;;;4988872;28;20193;-71
2021/12/27 06:20:55;;;;;;;14.40;7.03;;;5.20;99.90;;;;;;4986510;28;20601;-75
2021/12/27 06:23:21;;;;;;;12.90;6.70;;;5.20;99.90;;;;;;4985879;28;20236;-72
2021/12/27 06:25:48;;;;;;;18.40;7.40;;;5.30;99.90;;;;;;4982143;28;20197;-72
2021/12/27 06:28:16;;;;;;;12.93;5.97;;;5.40;99.90;;;;;;4979075;28;20213;-69
2021/12/27 06:30:46;;;;;;;14.93;6.97;;;5.30;99.90;;;;;;4978693;28;20232;-70
2021/12/27 06:33:13;;;;;;;15.37;7.43;;;5.30;99.90;;;;;;4987222;28;20216;-70
2021/12/27 06:35:40;;;;;;;13.40;6.83;;;5.40;99.90;;;;;;4986061;28;20267;-70
2021/12/27 06:38:07;;;;;;;16.93;7.43;;;5.30;99.90;;;;;;4987677;28;20189;-70
2021/12/27 06:40:33;;;;;;;13.73;6.87;;;5.40;99.90;;;;;;4988368;28;20205;-72
2021/12/27 06:43:00;;;;;;;13.90;6.43;;;5.30;99.90;;;;;;4982996;28;20189;-71
2021/12/27 06:45:27;;;;;;;17.00;6.77;;;5.40;99.90;;;;;;4988145;28;20227;-70
2021/12/27 06:47:54;;;;;;;19.33;7.33;;;5.40;99.90;;;;;;4982635;28;20189;-73
2021/12/27 06:50:23;;;;;;;14.70;6.83;;;5.30;99.90;;;;;;4978901;28;20210;-72
2021/12/27 06:52:50;;;;;;;13.30;6.00;;;5.40;99.90;;;;;;4985329;28;20634;-70
2021/12/27 06:55:17;;;;;;;13.53;6.53;;;5.40;99.90;;;;;;4983634;28;20240;-71
2021/12/27 06:57:44;;;;;;;15.37;6.77;;;5.40;99.90;;;;;;4980865;28;20239;-72
2021/12/27 07:00:12;;;;;;;16.73;6.53;;;5.30;99.90;;;;;;4975876;28;20208;-72
2021/12/27 07:02:39;;;;;;;13.43;6.50;;;5.20;99.90;;;;;;4978569;28;20804;-74
2021/12/27 07:05:07;;;;;;;12.77;6.67;;;5.20;99.90;;;;;;4982843;28;20220;-71
2021/12/27 07:07:34;;;;;;;15.10;6.37;;;5.10;99.90;;;;;;4979839;28;20669;-69
2021/12/27 07:10:01;;;;;;;13.33;6.17;;;5.10;99.90;;;;;;4980205;28;20197;-67
2021/12/27 07:12:28;;;;;;;14.47;6.70;;;5.20;99.90;;;;;;4982897;28;20216;-71
2021/12/27 07:14:55;;;;;;;12.13;5.87;;;5.20;99.90;;;;;;4981789;28;20275;-68
2021/12/27 07:17:21;;;;;;;15.60;7.17;;;5.20;99.90;;;;;;4978057;28;20782;-67
2021/12/27 07:19:48;;;;;;;10.67;5.83;;;5.20;99.90;;;;;;4981409;28;20263;-70
2021/12/27 07:22:16;;;;;;;13.87;6.70;;;5.10;99.90;;;;;;4984331;28;20605;-68
2021/12/27 07:24:42;;;;;;;14.27;6.60;;;5.30;99.90;;;;;;4975819;28;20227;-68
2021/12/27 07:27:09;;;;;;;12.00;6.23;;;5.30;99.90;;;;;;4980748;28;20223;-69
2021/12/27 07:29:36;;;;;;;13.23;6.90;;;5.20;99.90;;;;;;4979486;28;20235;-68
2021/12/27 07:32:03;;;;;;;13.10;6.07;;;5.20;99.90;;;;;;4983379;28;20209;-68
2021/12/27 07:34:30;;;;;;;16.23;6.53;;;5.30;99.90;;;;;;4982148;28;20248;-72
2021/12/27 07:36:57;;;;;;;14.60;6.73;;;5.30;99.90;;;;;;4980320;28;20224;-72
2021/12/27 07:39:25;;;;;;;10.60;5.80;;;5.40;99.90;;;;;;4984826;28;20245;-71
2021/12/27 07:41:53;;;;;;;10.97;5.90;;;5.40;99.90;;;;;;4979495;28;20984;-70
2021/12/27 07:44:20;;;;;;;12.80;5.77;;;5.50;99.90;;;;;;4982092;28;21135;-70
2021/12/27 07:46:47;;;;;;;16.23;6.53;;;5.40;99.90;;;;;;4982263;28;20880;-70
2021/12/27 07:49:15;;;;;;;13.13;6.70;;;5.50;99.90;;;;;;4983586;28;20564;-72
2021/12/27 07:51:43;;;;;;;11.57;5.97;;;5.50;99.90;;;;;;4981120;28;20220;-72
2021/12/27 07:54:10;;;;;;;18.10;7.10;;;5.50;99.90;;;;;;4980813;28;20224;-68
2021/12/27 07:56:37;;;;;;;19.23;7.47;;;5.60;99.90;;;;;;4982469;28;20216;-68
2021/12/27 07:59:05;;;;;;;15.87;6.57;;;5.70;99.90;;;;;;4982912;28;20228;-68
2021/12/27 08:01:33;;;;;;;15.53;6.47;;;5.80;99.90;;;;;;4982604;28;20422;-68
2021/12/27 08:04:01;;;;;;;17.33;6.70;;;5.80;99.90;;;;;;4980663;28;20221;-68
2021/12/27 08:06:28;;;;;;;15.03;7.40;;;5.70;99.90;;;;;;4979758;28;20216;-68
2021/12/27 08:08:55;;;;;;;13.27;6.47;;;5.70;99.90;;;;;;4980037;28;20205;-68
2021/12/27 08:11:22;;;;;;;17.40;7.40;;;5.80;99.90;;;;;;4975630;28;20208;-70
2021/12/27 08:13:48;;;;;;;13.40;6.47;;;5.80;99.90;;;;;;4978158;28;20224;-68
2021/12/27 08:16:17;;;;;;;18.00;7.20;;;5.90;99.90;;;;;;4983780;28;20267;-68
2021/12/27 08:18:46;;;;;;;17.90;7.33;;;5.90;99.90;;;;;;4983349;28;20234;-67
2021/12/27 08:21:14;;;;;;;17.70;6.93;;;5.90;99.90;;;;;;4984766;28;20208;-69
2021/12/27 08:23:41;;;;;;;20.17;7.70;;;5.90;99.90;;;;;;4981927;28;20283;-67
2021/12/27 08:26:07;;;;;;;14.77;7.37;;;5.90;99.90;;;;;;4984717;28;20197;-67
2021/12/27 08:28:34;;;;;;;16.73;7.17;;;5.80;99.90;;;;;;4983144;28;20193;-67
2021/12/27 08:31:00;;;;;;;21.27;7.53;;;5.90;99.90;;;;;;4983032;28;20198;-68
2021/12/27 08:33:27;;;;;;;13.47;6.63;;;6.00;99.90;;;;;;4983149;28;20228;-68
2021/12/27 08:35:54;;;;;;;21.27;7.43;;;6.10;99.90;;;;;;4984025;28;20204;-68
2021/12/27 08:38:21;;;;;;;18.80;7.10;;;6.00;99.90;;;;;;4985890;28;20831;-67
2021/12/27 08:40:47;;;;;;;23.00;8.00;;;5.90;99.90;;;;;;4983023;28;20215;-68
2021/12/27 08:43:14;;;;;;;24.57;7.87;;;5.80;99.90;;;;;;4982285;28;20202;-69
2021/12/27 08:45:41;;;;;;;23.10;8.27;;;5.80;99.90;;;;;;4981625;28;20572;-71
2021/12/27 08:48:08;;;;;;;24.20;8.70;;;5.80;99.90;;;;;;4981210;28;20630;-69
2021/12/27 08:50:37;;;;;;;25.27;7.57;;;5.70;99.90;;;;;;4978664;28;20318;-69
2021/12/27 08:53:05;;;;;;;22.03;9.10;;;5.80;99.90;;;;;;4980860;28;20236;-68
2021/12/27 08:55:33;;;;;;;26.70;8.57;;;5.80;99.90;;;;;;4983413;28;20263;-68
2021/12/27 08:58:00;;;;;;;23.37;9.60;;;5.80;99.90;;;;;;4978349;28;20232;-69
2021/12/27 09:00:28;;;;;;;22.10;8.83;;;5.80;99.90;;;;;;4982729;28;20212;-70
2021/12/27 09:02:55;;;;;;;22.57;9.13;;;5.80;99.90;;;;;;4983314;28;20200;-68
2021/12/27 09:05:22;;;;;;;23.10;8.70;;;5.80;99.90;;;;;;4984305;28;20585;-69
2021/12/27 09:07:48;;;;;;;28.10;9.40;;;5.80;99.90;;;;;;4985609;28;20200;-69
2021/12/27 09:10:16;;;;;;;25.83;9.13;;;5.80;99.90;;;;;;4985440;28;20212;-69
2021/12/27 09:12:43;;;;;;;26.87;9.30;;;5.90;99.90;;;;;;4984499;28;20212;-68
2021/12/27 09:15:11;;;;;;;25.80;8.63;;;5.90;99.90;;;;;;4985257;28;20216;-71
2021/12/27 09:17:38;;;;;;;24.80;9.83;;;6.00;99.90;;;;;;4981542;28;20244;-69
2021/12/27 09:20:06;;;;;;;22.50;9.23;;;6.00;99.90;;;;;;4982063;28;20213;-68
2021/12/27 09:22:32;;;;;;;30.90;10.43;;;6.20;99.90;;;;;;4978492;28;20685;-69
2021/12/27 09:24:59;;;;;;;29.47;9.73;;;6.20;99.90;;;;;;4983122;28;20728;-68
2021/12/27 09:27:26;;;;;;;28.70;9.43;;;6.20;99.90;;;;;;4983334;28;20220;-68
2021/12/27 09:29:52;;;;;;;26.23;10.43;;;6.20;99.90;;;;;;4981205;28;20268;-71
2021/12/27 09:32:19;;;;;;;21.73;8.77;;;6.20;99.90;;;;;;4979048;28;20696;-71
2021/12/27 09:34:46;;;;;;;31.70;9.63;;;6.40;99.90;;;;;;4982877;28;20240;-68
2021/12/27 09:37:13;;;;;;;27.20;10.83;;;6.30;99.90;;;;;;4981386;28;20235;-70
2021/12/27 09:39:39;;;;;;;26.93;9.87;;;6.40;99.90;;;;;;4980963;28;20201;-68
2021/12/27 09:42:06;;;;;;;24.73;10.17;;;6.40;99.90;;;;;;4980980;28;20216;-69
2021/12/27 09:44:33;;;;;;;25.13;10.00;;;6.50;99.90;;;;;;4982219;28;20236;-72
2021/12/27 09:47:00;;;;;;;24.37;10.77;;;6.60;99.90;;;;;;4978324;28;20193;-68
2021/12/27 09:49:29;;;;;;;27.53;9.40;;;6.70;99.90;;;;;;4980896;28;20205;-69
2021/12/27 09:51:58;;;;;;;21.67;9.57;;;6.70;99.90;;;;;;4985599;28;20209;-68
2021/12/27 09:54:29;;;;;;;24.77;9.93;;;6.70;99.90;;;;;;4982522;28;20226;-71
2021/12/27 09:56:56;;;;;;;24.57;9.47;;;6.70;99.90;;;;;;4988163;28;20217;-68
2021/12/27 09:59:23;;;;;;;26.57;9.23;;;6.70;99.90;;;;;;4987841;28;20198;-69
2021/12/27 10:01:52;;;;;;;24.90;10.00;;;6.70;99.90;;;;;;4987039;28;20210;-67
2021/12/27 10:04:20;;;;;;;24.23;9.97;;;6.80;99.90;;;;;;4988172;28;20788;-67
2021/12/27 10:06:47;;;;;;;26.33;10.23;;;6.80;99.90;;;;;;4983166;28;20206;-65
2021/12/27 10:09:15;;;;;;;22.67;9.23;;;6.90;99.90;;;;;;4986005;28;20212;-69
2021/12/27 10:11:43;;;;;;;29.17;10.60;;;6.80;99.90;;;;;;4985841;28;20209;-68
2021/12/27 10:14:16;;;;;;;22.73;9.33;;;6.80;99.90;;;;;;4986721;28;20234;-69
2021/12/27 10:16:48;;;;;;;25.53;9.43;;;6.90;99.90;;;;;;4985788;28;20225;-68
2021/12/27 10:19:16;;;;;;;28.03;9.77;;;7.00;99.90;;;;;;4985055;28;20268;-71
2021/12/27 10:21:45;;;;;;;20.97;8.40;;;7.00;99.90;;;;;;4984582;28;20203;-68
2021/12/27 10:24:14;;;;;;;28.53;10.30;;;7.00;99.90;;;;;;4985046;28;20289;-67
2021/12/27 10:26:42;;;;;;;22.80;10.13;;;7.10;99.90;;;;;;4981711;28;20772;-68
2021/12/27 10:29:22;;;;;;;22.10;9.43;;;7.00;99.90;;;;;;4981789;28;20679;-68
2021/12/27 10:31:50;;;;;;;22.57;9.13;;;7.00;99.90;;;;;;4983199;28;20211;-69
2021/12/27 10:34:17;;;;;;;24.17;10.30;;;7.10;99.90;;;;;;4983148;28;20244;-70
2021/12/27 10:37:16;;;;;;;23.47;9.53;;;7.10;99.90;;;;;;4986169;28;20212;-69
2021/12/27 10:39:55;;;;;;;22.97;10.27;;;7.00;99.90;;;;;;4985073;28;20254;-69
2021/12/27 10:42:22;;;;;;;22.90;9.80;;;6.90;99.90;;;;;;4983093;28;20209;-68
2021/12/27 10:44:51;;;;;;;19.37;9.10;;;6.90;99.90;;;;;;4984480;28;20250;-67
2021/12/27 10:47:29;;;;;;;22.73;9.27;;;7.10;99.90;;;;;;4985575;28;20207;-67
2021/12/27 10:50:03;;;;;;;17.67;7.97;;;7.10;99.90;;;;;;4985595;28;20847;-69
2021/12/27 10:52:47;;;;;;;21.87;9.40;;;7.00;99.90;;;;;;4983432;28;20552;-70
2021/12/27 10:55:38;;;;;;;21.73;9.63;;;7.00;99.90;;;;;;4984707;28;20227;-67
2021/12/27 10:58:28;;;;;;;21.73;9.17;;;7.20;99.90;;;;;;4983276;28;20574;-69
2021/12/27 11:01:18;;;;;;;23.10;8.70;;;7.30;99.90;;;;;;4982470;28;20669;-69
2021/12/27 11:03:50;;;;;;;17.77;8.63;;;7.30;99.90;;;;;;4983773;28;20282;-70
2021/12/27 11:06:20;;;;;;;19.93;8.70;;;7.30;99.90;;;;;;4986219;28;20198;-67
2021/12/27 11:08:48;;;;;;;22.00;9.13;;;7.40;99.90;;;;;;4984992;28;20212;-68
2021/12/27 11:11:16;;;;;;;21.27;9.53;;;7.40;99.90;;;;;;4982366;28;20213;-70
2021/12/27 11:13:44;;;;;;;23.77;10.40;;;7.30;99.90;;;;;;4977891;28;20226;-68
2021/12/27 11:16:10;;;;;;;22.83;9.80;;;7.30;99.90;;;;;;4983692;28;20673;-68
2021/12/27 11:18:37;;;;;;;25.50;9.70;;;7.30;99.90;;;;;;4979499;28;20223;-70
2021/12/27 11:21:10;;;;;;;22.37;9.13;;;7.50;99.90;;;;;;4985137;28;20199;-70
2021/12/27 11:23:38;;;;;;;19.67;9.47;;;7.50;99.90;;;;;;4984325;28;20227;-70
2021/12/27 11:26:29;;;;;;;26.17;9.83;;;7.50;99.90;;;;;;4983424;28;20295;-69
2021/12/27 11:29:17;;;;;;;22.93;9.20;;;7.70;99.90;;;;;;4986010;28;20200;-69
2021/12/27 11:31:46;;;;;;;21.87;9.07;;;7.60;99.90;;;;;;4982350;28;20211;-69
2021/12/27 11:34:14;;;;;;;21.20;9.13;;;7.60;99.90;;;;;;4985256;28;20286;-70
2021/12/27 11:36:46;;;;;;;21.93;9.93;;;7.50;99.90;;;;;;4983618;28;20397;-68
2021/12/27 11:39:20;;;;;;;21.67;9.50;;;7.60;99.90;;;;;;4985216;28;20207;-68
2021/12/27 11:42:04;;;;;;;22.30;9.40;;;7.60;99.90;;;;;;4984915;28;20230;-68
2021/12/27 11:44:44;;;;;;;25.50;10.67;;;7.60;99.90;;;;;;4985955;28;20225;-68
2021/12/27 11:47:22;;;;;;;27.53;10.30;;;7.70;99.90;;;;;;4983064;28;20277;-68
2021/12/27 11:49:52;;;;;;;26.97;10.67;;;7.80;99.90;;;;;;4984171;28;20376;-69
2021/12/27 11:52:23;;;;;;;23.23;10.00;;;7.80;99.90;;;;;;4980832;28;20209;-69
2021/12/27 11:54:55;;;;;;;25.50;10.57;;;7.90;99.90;;;;;;4980775;28;20244;-68
2021/12/27 11:57:37;;;;;;;22.60;10.73;;;8.10;99.90;;;;;;4984330;28;20316;-68
2021/12/27 12:00:24;;;;;;;23.13;10.23;;;8.20;99.90;;;;;;4979579;28;20622;-69
2021/12/27 12:03:06;;;;;;;25.17;10.20;;;8.30;99.90;;;;;;4982614;28;20495;-70
2021/12/27 12:05:45;;;;;;;21.03;10.03;;;8.40;99.90;;;;;;4984979;28;20208;-70
2021/12/27 12:08:33;;;;;;;23.70;9.97;;;8.40;99.90;;;;;;4983580;28;20215;-71
2021/12/27 12:11:04;;;;;;;22.50;9.70;;;8.40;99.90;;;;;;4973585;28;21011;-71
2021/12/27 12:13:37;;;;;;;23.57;10.90;;;8.50;99.90;;;;;;4998479;28;20236;-69
2021/12/27 12:16:10;;;;;;;24.07;10.90;;;8.40;99.90;;;;;;4983255;28;20201;-71
2021/12/27 12:18:40;;;;;;;21.87;10.37;;;8.50;99.90;;;;;;4984525;28;20839;-70
2021/12/27 12:21:33;;;;;;;23.13;10.63;;;8.60;99.90;;;;;;4979666;28;20284;-71
2021/12/27 12:24:27;;;;;;;21.37;10.63;;;8.70;99.90;;;;;;4983694;28;21191;-68
2021/12/27 12:27:04;;;;;;;29.20;11.83;;;8.70;99.90;;;;;;4976792;28;20209;-70
2021/12/27 12:29:39;;;;;;;27.27;11.87;;;8.80;99.90;;;;;;4983782;28;20200;-65
2021/12/27 12:32:08;;;;;;;25.70;11.47;;;8.80;99.90;;;;;;4980432;28;20197;-70
2021/12/27 12:34:36;;;;;;;29.37;12.40;;;8.90;99.90;;;;;;4981286;28;20236;-71
2021/12/27 12:37:06;;;;;;;28.23;11.63;;;8.70;99.90;;;;;;4982205;28;20255;-68
2021/12/27 12:39:44;;;;;;;29.23;11.87;;;8.70;99.90;;;;;;4984206;28;20280;-68
2021/12/27 12:42:13;;;;;;;29.30;11.90;;;8.70;99.90;;;;;;4982159;28;20600;-68
2021/12/27 12:44:52;;;;;;;27.90;11.87;;;8.80;99.90;;;;;;4980937;28;20226;-69
2021/12/27 12:47:22;;;;;;;28.63;12.40;;;8.90;99.90;;;;;;4982774;28;20221;-69
2021/12/27 12:49:49;;;;;;;38.43;13.17;;;9.10;99.90;;;;;;4983534;28;20200;-72
2021/12/27 12:52:16;;;;;;;27.63;12.57;;;9.20;99.90;;;;;;4979951;28;20207;-69
2021/12/27 12:54:44;;;;;;;33.03;12.30;;;9.20;99.90;;;;;;4979887;28;20232;-71